sensor_id;sensor_type;location;lat;lon;timestamp;P1;durP1;ratioP1;P2;durP2;ratioP2
2728;SDS011;1372;47.956;7.830;2023-06-10T00:00:47;4.87;;;4.50;;
2728;SDS011;1372;47.956;7.830;2023-06-10T00:03:17;4.43;;;4.10;;
2728;SDS011;1372;47.956;7.830;2023-06-10T00:05:47;4.80;;;4.30;;
2728;SDS011;1372;47.956;7.830;2023-06-10T00:08:16;5.60;;;5.00;;
2728;SDS011;1372;47.956;7.830;2023-06-10T00:10:46;5.43;;;5.03;;
2728;SDS011;1372;47.956;7.830;2023-06-10T00:13:16;5.80;;;5.30;;
2728;SDS011;1372;47.956;7.830;2023-06-10T00:15:46;6.00;;;5.50;;
2728;SDS011;1372;47.956;7.830;2023-06-10T00:18:14;5.20;;;4.80;;
2728;SDS011;1372;47.956;7.830;2023-06-10T00:20:44;5.50;;;5.00;;
2728;SDS011;1372;47.956;7.830;2023-06-10T00:23:15;5.07;;;4.67;;
2728;SDS011;1372;47.956;7.830;2023-06-10T00:25:44;5.30;;;4.80;;
2728;SDS011;1372;47.956;7.830;2023-06-10T00:28:13;5.87;;;5.27;;
2728;SDS011;1372;47.956;7.830;2023-06-10T00:30:45;5.10;;;4.70;;
2728;SDS011;1372;47.956;7.830;2023-06-10T00:33:14;5.63;;;5.13;;
2728;SDS011;1372;47.956;7.830;2023-06-10T00:35:45;5.10;;;4.70;;
2728;SDS011;1372;47.956;7.830;2023-06-10T00:38:14;5.07;;;4.60;;
2728;SDS011;1372;47.956;7.830;2023-06-10T00:40:42;5.63;;;5.10;;
2728;SDS011;1372;47.956;7.830;2023-06-10T00:43:11;5.10;;;4.70;;
2728;SDS011;1372;47.956;7.830;2023-06-10T00:45:40;4.80;;;4.50;;
2728;SDS011;1372;47.956;7.830;2023-06-10T00:48:10;6.40;;;5.27;;
2728;SDS011;1372;47.956;7.830;2023-06-10T00:50:39;5.73;;;5.30;;
2728;SDS011;1372;47.956;7.830;2023-06-10T00:53:08;5.50;;;5.10;;
2728;SDS011;1372;47.956;7.830;2023-06-10T00:55:38;5.30;;;4.90;;
2728;SDS011;1372;47.956;7.830;2023-06-10T00:58:11;5.50;;;5.10;;
2728;SDS011;1372;47.956;7.830;2023-06-10T01:00:40;5.50;;;5.03;;
2728;SDS011;1372;47.956;7.830;2023-06-10T01:03:10;6.17;;;5.60;;
2728;SDS011;1372;47.956;7.830;2023-06-10T01:05:39;5.80;;;5.30;;
2728;SDS011;1372;47.956;7.830;2023-06-10T01:08:10;5.73;;;5.23;;
2728;SDS011;1372;47.956;7.830;2023-06-10T01:10:50;5.73;;;5.33;;
2728;SDS011;1372;47.956;7.830;2023-06-10T01:13:24;6.50;;;5.20;;
2728;SDS011;1372;47.956;7.830;2023-06-10T01:15:55;5.73;;;5.33;;
2728;SDS011;1372;47.956;7.830;2023-06-10T01:18:30;5.70;;;5.20;;
2728;SDS011;1372;47.956;7.830;2023-06-10T01:21:00;6.00;;;5.50;;
2728;SDS011;1372;47.956;7.830;2023-06-10T01:23:30;5.70;;;5.20;;
2728;SDS011;1372;47.956;7.830;2023-06-10T01:26:00;5.73;;;5.23;;
2728;SDS011;1372;47.956;7.830;2023-06-10T01:28:33;5.20;;;4.80;;
2728;SDS011;1372;47.956;7.830;2023-06-10T01:31:13;5.40;;;5.00;;
2728;SDS011;1372;47.956;7.830;2023-06-10T01:33:51;5.23;;;4.80;;
2728;SDS011;1372;47.956;7.830;2023-06-10T01:36:21;6.40;;;5.80;;
2728;SDS011;1372;47.956;7.830;2023-06-10T01:38:53;5.73;;;5.23;;
2728;SDS011;1372;47.956;7.830;2023-06-10T01:41:23;5.87;;;5.27;;
2728;SDS011;1372;47.956;7.830;2023-06-10T01:43:53;5.30;;;4.80;;
2728;SDS011;1372;47.956;7.830;2023-06-10T01:46:23;7.83;;;5.93;;
2728;SDS011;1372;47.956;7.830;2023-06-10T01:48:51;5.63;;;5.17;;
2728;SDS011;1372;47.956;7.830;2023-06-10T01:51:20;5.57;;;5.03;;
2728;SDS011;1372;47.956;7.830;2023-06-10T01:53:49;5.50;;;5.00;;
2728;SDS011;1372;47.956;7.830;2023-06-10T01:56:20;5.60;;;5.20;;
2728;SDS011;1372;47.956;7.830;2023-06-10T01:58:50;6.50;;;5.90;;
2728;SDS011;1372;47.956;7.830;2023-06-10T02:01:24;6.20;;;5.63;;
2728;SDS011;1372;47.956;7.830;2023-06-10T02:03:53;6.03;;;5.10;;
2728;SDS011;1372;47.956;7.830;2023-06-10T02:06:22;5.40;;;4.90;;
2728;SDS011;1372;47.956;7.830;2023-06-10T02:08:51;6.10;;;5.50;;
2728;SDS011;1372;47.956;7.830;2023-06-10T02:11:21;5.47;;;5.03;;
2728;SDS011;1372;47.956;7.830;2023-06-10T02:13:52;6.17;;;5.67;;
2728;SDS011;1372;47.956;7.830;2023-06-10T02:16:24;5.20;;;4.70;;
2728;SDS011;1372;47.956;7.830;2023-06-10T02:18:53;6.90;;;6.30;;
2728;SDS011;1372;47.956;7.830;2023-06-10T02:21:22;6.30;;;5.60;;
2728;SDS011;1372;47.956;7.830;2023-06-10T02:23:51;6.03;;;5.53;;
2728;SDS011;1372;47.956;7.830;2023-06-10T02:26:19;5.77;;;5.17;;
2728;SDS011;1372;47.956;7.830;2023-06-10T02:28:52;6.20;;;5.70;;
2728;SDS011;1372;47.956;7.830;2023-06-10T02:31:21;5.73;;;5.23;;
2728;SDS011;1372;47.956;7.830;2023-06-10T02:33:50;6.20;;;5.70;;
2728;SDS011;1372;47.956;7.830;2023-06-10T02:36:19;6.50;;;5.27;;
2728;SDS011;1372;47.956;7.830;2023-06-10T02:38:50;6.37;;;5.87;;
2728;SDS011;1372;47.956;7.830;2023-06-10T02:41:19;6.20;;;5.50;;
2728;SDS011;1372;47.956;7.830;2023-06-10T02:43:49;6.10;;;5.60;;
2728;SDS011;1372;47.956;7.830;2023-06-10T02:46:18;5.73;;;5.23;;
2728;SDS011;1372;47.956;7.830;2023-06-10T02:48:47;6.70;;;6.20;;
2728;SDS011;1372;47.956;7.830;2023-06-10T02:51:18;5.80;;;5.40;;
2728;SDS011;1372;47.956;7.830;2023-06-10T02:53:47;6.13;;;5.53;;
2728;SDS011;1372;47.956;7.830;2023-06-10T02:56:16;7.00;;;6.40;;
2728;SDS011;1372;47.956;7.830;2023-06-10T02:58:48;5.67;;;5.27;;
2728;SDS011;1372;47.956;7.830;2023-06-10T03:01:21;6.43;;;5.77;;
2728;SDS011;1372;47.956;7.830;2023-06-10T03:03:49;6.13;;;5.63;;
2728;SDS011;1372;47.956;7.830;2023-06-10T03:06:19;6.70;;;6.10;;
2728;SDS011;1372;47.956;7.830;2023-06-10T03:08:48;6.20;;;5.70;;
2728;SDS011;1372;47.956;7.830;2023-06-10T03:11:16;5.70;;;5.20;;
2728;SDS011;1372;47.956;7.830;2023-06-10T03:13:47;6.20;;;5.70;;
2728;SDS011;1372;47.956;7.830;2023-06-10T03:16:18;6.07;;;5.57;;
2728;SDS011;1372;47.956;7.830;2023-06-10T03:18:48;6.90;;;6.30;;
2728;SDS011;1372;47.956;7.830;2023-06-10T03:21:17;6.83;;;6.23;;
2728;SDS011;1372;47.956;7.830;2023-06-10T03:23:46;6.13;;;5.53;;
2728;SDS011;1372;47.956;7.830;2023-06-10T03:26:15;6.17;;;5.60;;
2728;SDS011;1372;47.956;7.830;2023-06-10T03:28:43;6.23;;;5.73;;
2728;SDS011;1372;47.956;7.830;2023-06-10T03:31:13;6.47;;;5.97;;
2728;SDS011;1372;47.956;7.830;2023-06-10T03:33:43;6.93;;;6.23;;
2728;SDS011;1372;47.956;7.830;2023-06-10T03:36:12;6.80;;;6.10;;
2728;SDS011;1372;47.956;7.830;2023-06-10T03:38:41;6.93;;;6.20;;
2728;SDS011;1372;47.956;7.830;2023-06-10T03:41:10;6.90;;;6.40;;
2728;SDS011;1372;47.956;7.830;2023-06-10T03:43:40;6.43;;;5.83;;
2728;SDS011;1372;47.956;7.830;2023-06-10T03:46:09;6.73;;;5.80;;
2728;SDS011;1372;47.956;7.830;2023-06-10T03:48:39;6.40;;;5.90;;
2728;SDS011;1372;47.956;7.830;2023-06-10T03:51:09;7.20;;;6.60;;
2728;SDS011;1372;47.956;7.830;2023-06-10T03:53:38;6.43;;;5.93;;
2728;SDS011;1372;47.956;7.830;2023-06-10T03:56:06;7.13;;;6.53;;
2728;SDS011;1372;47.956;7.830;2023-06-10T03:58:37;6.97;;;6.33;;
2728;SDS011;1372;47.956;7.830;2023-06-10T04:01:06;7.00;;;6.30;;
2728;SDS011;1372;47.956;7.830;2023-06-10T04:03:35;7.60;;;6.90;;
2728;SDS011;1372;47.956;7.830;2023-06-10T04:06:05;7.17;;;6.57;;
2728;SDS011;1372;47.956;7.830;2023-06-10T04:08:34;7.13;;;6.60;;
2728;SDS011;1372;47.956;7.830;2023-06-10T04:11:02;6.77;;;5.83;;
2728;SDS011;1372;47.956;7.830;2023-06-10T04:13:31;7.40;;;6.80;;
2728;SDS011;1372;47.956;7.830;2023-06-10T04:16:00;6.50;;;6.00;;
2728;SDS011;1372;47.956;7.830;2023-06-10T04:18:29;7.50;;;6.80;;
2728;SDS011;1372;47.956;7.830;2023-06-10T04:20:58;6.90;;;6.30;;
2728;SDS011;1372;47.956;7.830;2023-06-10T04:23:29;7.30;;;6.70;;
2728;SDS011;1372;47.956;7.830;2023-06-10T04:25:58;7.70;;;7.00;;
2728;SDS011;1372;47.956;7.830;2023-06-10T04:28:27;6.93;;;6.40;;
2728;SDS011;1372;47.956;7.830;2023-06-10T04:30:56;6.80;;;6.20;;
2728;SDS011;1372;47.956;7.830;2023-06-10T04:33:27;13.03;;;10.70;;
2728;SDS011;1372;47.956;7.830;2023-06-10T04:35:56;9.87;;;8.97;;
2728;SDS011;1372;47.956;7.830;2023-06-10T04:38:25;10.30;;;9.17;;
2728;SDS011;1372;47.956;7.830;2023-06-10T04:40:56;7.60;;;7.00;;
2728;SDS011;1372;47.956;7.830;2023-06-10T04:43:25;8.10;;;7.17;;
2728;SDS011;1372;47.956;7.830;2023-06-10T04:45:57;7.90;;;6.87;;
2728;SDS011;1372;47.956;7.830;2023-06-10T04:48:26;8.43;;;7.10;;
2728;SDS011;1372;47.956;7.830;2023-06-10T04:50:55;8.90;;;8.10;;
2728;SDS011;1372;47.956;7.830;2023-06-10T04:53:23;9.03;;;8.27;;
2728;SDS011;1372;47.956;7.830;2023-06-10T04:55:53;9.07;;;8.27;;
2728;SDS011;1372;47.956;7.830;2023-06-10T04:58:23;8.07;;;7.17;;
2728;SDS011;1372;47.956;7.830;2023-06-10T05:00:52;6.83;;;6.30;;
2728;SDS011;1372;47.956;7.830;2023-06-10T05:03:20;7.10;;;6.50;;
2728;SDS011;1372;47.956;7.830;2023-06-10T05:05:49;8.33;;;7.53;;
2728;SDS011;1372;47.956;7.830;2023-06-10T05:08:18;7.40;;;6.77;;
2728;SDS011;1372;47.956;7.830;2023-06-10T05:10:47;8.40;;;7.70;;
2728;SDS011;1372;47.956;7.830;2023-06-10T05:13:16;7.67;;;6.20;;
2728;SDS011;1372;47.956;7.830;2023-06-10T05:15:47;53.60;;;47.97;;
2728;SDS011;1372;47.956;7.830;2023-06-10T05:18:15;58.13;;;51.83;;
2728;SDS011;1372;47.956;7.830;2023-06-10T05:20:44;54.57;;;48.73;;
2728;SDS011;1372;47.956;7.830;2023-06-10T05:23:13;50.37;;;45.27;;
2728;SDS011;1372;47.956;7.830;2023-06-10T05:25:42;31.03;;;27.87;;
2728;SDS011;1372;47.956;7.830;2023-06-10T05:28:11;24.47;;;22.10;;
2728;SDS011;1372;47.956;7.830;2023-06-10T05:30:41;24.30;;;22.10;;
2728;SDS011;1372;47.956;7.830;2023-06-10T05:33:11;23.20;;;21.07;;
2728;SDS011;1372;47.956;7.830;2023-06-10T05:35:40;22.00;;;20.07;;
2728;SDS011;1372;47.956;7.830;2023-06-10T05:38:09;26.90;;;24.43;;
2728;SDS011;1372;47.956;7.830;2023-06-10T05:40:40;24.80;;;22.60;;
2728;SDS011;1372;47.956;7.830;2023-06-10T05:43:09;15.43;;;14.13;;
2728;SDS011;1372;47.956;7.830;2023-06-10T05:45:40;8.70;;;8.10;;
2728;SDS011;1372;47.956;7.830;2023-06-10T05:48:09;8.97;;;8.07;;
2728;SDS011;1372;47.956;7.830;2023-06-10T05:50:39;9.10;;;8.30;;
2728;SDS011;1372;47.956;7.830;2023-06-10T05:53:09;8.60;;;7.80;;
2728;SDS011;1372;47.956;7.830;2023-06-10T05:55:42;8.37;;;7.67;;
2728;SDS011;1372;47.956;7.830;2023-06-10T05:58:12;7.50;;;7.00;;
2728;SDS011;1372;47.956;7.830;2023-06-10T06:00:41;8.60;;;7.90;;
2728;SDS011;1372;47.956;7.830;2023-06-10T06:03:11;7.67;;;7.00;;
2728;SDS011;1372;47.956;7.830;2023-06-10T06:05:40;8.33;;;7.70;;
2728;SDS011;1372;47.956;7.830;2023-06-10T06:08:09;8.70;;;7.97;;
2728;SDS011;1372;47.956;7.830;2023-06-10T06:10:42;7.33;;;6.70;;
2728;SDS011;1372;47.956;7.830;2023-06-10T06:13:11;8.10;;;7.50;;
2728;SDS011;1372;47.956;7.830;2023-06-10T06:15:39;7.57;;;6.97;;
2728;SDS011;1372;47.956;7.830;2023-06-10T06:18:12;7.70;;;7.00;;
2728;SDS011;1372;47.956;7.830;2023-06-10T06:20:41;7.63;;;7.03;;
2728;SDS011;1372;47.956;7.830;2023-06-10T06:23:09;9.20;;;7.40;;
2728;SDS011;1372;47.956;7.830;2023-06-10T06:25:38;7.90;;;7.30;;
2728;SDS011;1372;47.956;7.830;2023-06-10T06:28:07;7.57;;;6.80;;
2728;SDS011;1372;47.956;7.830;2023-06-10T06:30:37;7.80;;;7.20;;
2728;SDS011;1372;47.956;7.830;2023-06-10T06:33:07;8.03;;;7.33;;
2728;SDS011;1372;47.956;7.830;2023-06-10T06:35:37;7.80;;;7.10;;
2728;SDS011;1372;47.956;7.830;2023-06-10T06:38:06;8.27;;;7.57;;
2728;SDS011;1372;47.956;7.830;2023-06-10T06:40:38;7.77;;;7.17;;
2728;SDS011;1372;47.956;7.830;2023-06-10T06:43:07;7.33;;;6.77;;
2728;SDS011;1372;47.956;7.830;2023-06-10T06:45:36;7.40;;;6.70;;
2728;SDS011;1372;47.956;7.830;2023-06-10T06:48:05;8.60;;;7.90;;
2728;SDS011;1372;47.956;7.830;2023-06-10T06:50:34;8.10;;;7.50;;
2728;SDS011;1372;47.956;7.830;2023-06-10T06:53:04;8.50;;;7.70;;
2728;SDS011;1372;47.956;7.830;2023-06-10T06:55:33;8.43;;;7.73;;
2728;SDS011;1372;47.956;7.830;2023-06-10T06:58:02;7.20;;;6.60;;
2728;SDS011;1372;47.956;7.830;2023-06-10T07:00:31;7.10;;;6.43;;
2728;SDS011;1372;47.956;7.830;2023-06-10T07:03:00;8.33;;;7.63;;
2728;SDS011;1372;47.956;7.830;2023-06-10T07:05:28;9.73;;;7.63;;
2728;SDS011;1372;47.956;7.830;2023-06-10T07:07:57;7.77;;;7.13;;
2728;SDS011;1372;47.956;7.830;2023-06-10T07:10:28;7.40;;;6.70;;
2728;SDS011;1372;47.956;7.830;2023-06-10T07:12:57;8.20;;;7.40;;
2728;SDS011;1372;47.956;7.830;2023-06-10T07:15:25;7.80;;;6.93;;
2728;SDS011;1372;47.956;7.830;2023-06-10T07:17:54;8.17;;;7.57;;
2728;SDS011;1372;47.956;7.830;2023-06-10T07:20:25;7.33;;;6.73;;
2728;SDS011;1372;47.956;7.830;2023-06-10T07:22:54;7.90;;;7.20;;
2728;SDS011;1372;47.956;7.830;2023-06-10T07:25:25;7.73;;;7.03;;
2728;SDS011;1372;47.956;7.830;2023-06-10T07:27:58;8.07;;;7.47;;
2728;SDS011;1372;47.956;7.830;2023-06-10T07:30:27;8.43;;;7.67;;
2728;SDS011;1372;47.956;7.830;2023-06-10T07:32:56;7.60;;;7.00;;
2728;SDS011;1372;47.956;7.830;2023-06-10T07:35:25;7.20;;;6.60;;
2728;SDS011;1372;47.956;7.830;2023-06-10T07:37:54;8.20;;;7.50;;
2728;SDS011;1372;47.956;7.830;2023-06-10T07:40:23;7.90;;;7.20;;
2728;SDS011;1372;47.956;7.830;2023-06-10T07:42:54;8.10;;;7.40;;
2728;SDS011;1372;47.956;7.830;2023-06-10T07:45:23;8.50;;;7.70;;
2728;SDS011;1372;47.956;7.830;2023-06-10T07:47:52;7.67;;;6.97;;
2728;SDS011;1372;47.956;7.830;2023-06-10T07:50:21;7.50;;;6.90;;
2728;SDS011;1372;47.956;7.830;2023-06-10T07:52:50;8.33;;;7.63;;
2728;SDS011;1372;47.956;7.830;2023-06-10T07:55:21;7.70;;;7.00;;
2728;SDS011;1372;47.956;7.830;2023-06-10T07:57:54;8.97;;;8.17;;
2728;SDS011;1372;47.956;7.830;2023-06-10T08:00:23;7.83;;;7.10;;
2728;SDS011;1372;47.956;7.830;2023-06-10T08:02:51;7.97;;;7.27;;
2728;SDS011;1372;47.956;7.830;2023-06-10T08:05:20;7.70;;;6.90;;
2728;SDS011;1372;47.956;7.830;2023-06-10T08:07:49;9.00;;;8.20;;
2728;SDS011;1372;47.956;7.830;2023-06-10T08:10:18;8.30;;;7.60;;
2728;SDS011;1372;47.956;7.830;2023-06-10T08:12:47;8.10;;;7.50;;
2728;SDS011;1372;47.956;7.830;2023-06-10T08:15:17;8.13;;;7.43;;
2728;SDS011;1372;47.956;7.830;2023-06-10T08:17:46;8.70;;;7.83;;
2728;SDS011;1372;47.956;7.830;2023-06-10T08:20:14;8.20;;;7.60;;
2728;SDS011;1372;47.956;7.830;2023-06-10T08:22:44;9.07;;;8.27;;
2728;SDS011;1372;47.956;7.830;2023-06-10T08:25:15;8.20;;;7.50;;
2728;SDS011;1372;47.956;7.830;2023-06-10T08:27:44;8.23;;;7.63;;
2728;SDS011;1372;47.956;7.830;2023-06-10T08:30:13;8.63;;;7.73;;
2728;SDS011;1372;47.956;7.830;2023-06-10T08:32:44;7.57;;;7.00;;
2728;SDS011;1372;47.956;7.830;2023-06-10T08:35:13;8.00;;;7.30;;
2728;SDS011;1372;47.956;7.830;2023-06-10T08:37:42;7.70;;;7.03;;
2728;SDS011;1372;47.956;7.830;2023-06-10T08:40:11;8.30;;;7.70;;
2728;SDS011;1372;47.956;7.830;2023-06-10T08:42:43;8.00;;;7.30;;
2728;SDS011;1372;47.956;7.830;2023-06-10T08:45:17;7.33;;;6.73;;
2728;SDS011;1372;47.956;7.830;2023-06-10T08:47:49;8.27;;;7.57;;
2728;SDS011;1372;47.956;7.830;2023-06-10T08:50:19;7.87;;;7.27;;
2728;SDS011;1372;47.956;7.830;2023-06-10T08:52:50;8.20;;;7.43;;
2728;SDS011;1372;47.956;7.830;2023-06-10T08:55:27;8.23;;;7.53;;
2728;SDS011;1372;47.956;7.830;2023-06-10T08:57:59;8.73;;;7.93;;
2728;SDS011;1372;47.956;7.830;2023-06-10T09:00:31;8.60;;;7.80;;
2728;SDS011;1372;47.956;7.830;2023-06-10T09:03:01;9.00;;;8.30;;
2728;SDS011;1372;47.956;7.830;2023-06-10T09:05:38;8.50;;;7.80;;
2728;SDS011;1372;47.956;7.830;2023-06-10T09:08:07;8.37;;;7.50;;
2728;SDS011;1372;47.956;7.830;2023-06-10T09:10:36;7.37;;;6.77;;
2728;SDS011;1372;47.956;7.830;2023-06-10T09:13:06;7.10;;;6.60;;
2728;SDS011;1372;47.956;7.830;2023-06-10T09:15:37;8.37;;;7.70;;
2728;SDS011;1372;47.956;7.830;2023-06-10T09:18:09;7.87;;;7.17;;
2728;SDS011;1372;47.956;7.830;2023-06-10T09:20:39;9.40;;;8.57;;
2728;SDS011;1372;47.956;7.830;2023-06-10T09:23:09;8.93;;;8.10;;
2728;SDS011;1372;47.956;7.830;2023-06-10T09:25:38;8.50;;;7.80;;
2728;SDS011;1372;47.956;7.830;2023-06-10T09:28:12;9.33;;;8.60;;
2728;SDS011;1372;47.956;7.830;2023-06-10T09:30:42;8.47;;;7.87;;
2728;SDS011;1372;47.956;7.830;2023-06-10T09:33:13;8.33;;;7.40;;
2728;SDS011;1372;47.956;7.830;2023-06-10T09:35:47;7.57;;;6.97;;
2728;SDS011;1372;47.956;7.830;2023-06-10T09:38:19;7.93;;;7.33;;
2728;SDS011;1372;47.956;7.830;2023-06-10T09:40:50;8.90;;;8.10;;
2728;SDS011;1372;47.956;7.830;2023-06-10T09:43:20;8.67;;;7.97;;
2728;SDS011;1372;47.956;7.830;2023-06-10T09:45:49;9.03;;;8.23;;
2728;SDS011;1372;47.956;7.830;2023-06-10T09:48:22;9.00;;;8.30;;
2728;SDS011;1372;47.956;7.830;2023-06-10T09:50:51;8.57;;;7.97;;
2728;SDS011;1372;47.956;7.830;2023-06-10T09:53:20;8.77;;;8.03;;
2728;SDS011;1372;47.956;7.830;2023-06-10T09:55:49;9.37;;;8.67;;
2728;SDS011;1372;47.956;7.830;2023-06-10T09:58:27;9.60;;;8.80;;
2728;SDS011;1372;47.956;7.830;2023-06-10T10:01:06;9.27;;;8.57;;
2728;SDS011;1372;47.956;7.830;2023-06-10T10:03:46;9.63;;;8.93;;
2728;SDS011;1372;47.956;7.830;2023-06-10T10:06:18;9.57;;;8.57;;
2728;SDS011;1372;47.956;7.830;2023-06-10T10:08:49;8.43;;;7.83;;
2728;SDS011;1372;47.956;7.830;2023-06-10T10:11:19;10.40;;;9.50;;
2728;SDS011;1372;47.956;7.830;2023-06-10T10:13:50;9.17;;;8.47;;
2728;SDS011;1372;47.956;7.830;2023-06-10T10:16:20;8.60;;;7.97;;
2728;SDS011;1372;47.956;7.830;2023-06-10T10:18:57;9.90;;;9.10;;
2728;SDS011;1372;47.956;7.830;2023-06-10T10:21:34;9.07;;;8.37;;
2728;SDS011;1372;47.956;7.830;2023-06-10T10:24:12;9.77;;;9.00;;
2728;SDS011;1372;47.956;7.830;2023-06-10T10:26:46;10.43;;;9.63;;
2728;SDS011;1372;47.956;7.830;2023-06-10T10:29:20;10.53;;;9.63;;
2728;SDS011;1372;47.956;7.830;2023-06-10T10:31:52;11.00;;;10.20;;
2728;SDS011;1372;47.956;7.830;2023-06-10T10:34:30;11.63;;;10.60;;
2728;SDS011;1372;47.956;7.830;2023-06-10T10:37:13;10.87;;;9.97;;
2728;SDS011;1372;47.956;7.830;2023-06-10T10:39:42;10.20;;;9.40;;
2728;SDS011;1372;47.956;7.830;2023-06-10T10:42:12;10.73;;;9.83;;
2728;SDS011;1372;47.956;7.830;2023-06-10T10:44:42;10.30;;;9.50;;
2728;SDS011;1372;47.956;7.830;2023-06-10T10:47:12;12.43;;;11.43;;
2728;SDS011;1372;47.956;7.830;2023-06-10T10:49:48;11.47;;;10.57;;
2728;SDS011;1372;47.956;7.830;2023-06-10T10:52:19;11.37;;;10.57;;
2728;SDS011;1372;47.956;7.830;2023-06-10T10:54:48;11.17;;;10.17;;
2728;SDS011;1372;47.956;7.830;2023-06-10T10:57:22;10.60;;;9.77;;
2728;SDS011;1372;47.956;7.830;2023-06-10T10:59:52;11.33;;;10.37;;
2728;SDS011;1372;47.956;7.830;2023-06-10T11:02:37;12.00;;;11.10;;
2728;SDS011;1372;47.956;7.830;2023-06-10T11:05:12;11.60;;;10.70;;
2728;SDS011;1372;47.956;7.830;2023-06-10T11:07:51;11.00;;;10.20;;
2728;SDS011;1372;47.956;7.830;2023-06-10T11:10:31;12.20;;;11.30;;
2728;SDS011;1372;47.956;7.830;2023-06-10T11:13:05;12.20;;;11.20;;
2728;SDS011;1372;47.956;7.830;2023-06-10T11:15:39;11.03;;;10.17;;
2728;SDS011;1372;47.956;7.830;2023-06-10T11:18:14;11.67;;;10.77;;
2728;SDS011;1372;47.956;7.830;2023-06-10T11:20:54;11.03;;;10.23;;
2728;SDS011;1372;47.956;7.830;2023-06-10T11:23:35;11.30;;;10.40;;
2728;SDS011;1372;47.956;7.830;2023-06-10T11:29:03;11.63;;;10.70;;
2728;SDS011;1372;47.956;7.830;2023-06-10T11:31:41;11.77;;;10.80;;
2728;SDS011;1372;47.956;7.830;2023-06-10T11:34:22;11.97;;;11.07;;
2728;SDS011;1372;47.956;7.830;2023-06-10T11:36:55;10.70;;;9.70;;
2728;SDS011;1372;47.956;7.830;2023-06-10T11:39:26;10.60;;;9.70;;
2728;SDS011;1372;47.956;7.830;2023-06-10T11:41:57;10.97;;;9.97;;
2728;SDS011;1372;47.956;7.830;2023-06-10T11:44:28;12.27;;;11.27;;
2728;SDS011;1372;47.956;7.830;2023-06-10T11:47:00;11.43;;;10.57;;
2728;SDS011;1372;47.956;7.830;2023-06-10T11:49:29;10.33;;;9.53;;
2728;SDS011;1372;47.956;7.830;2023-06-10T11:52:03;10.87;;;9.97;;
2728;SDS011;1372;47.956;7.830;2023-06-10T11:54:33;11.83;;;10.93;;
2728;SDS011;1372;47.956;7.830;2023-06-10T11:57:02;10.40;;;9.57;;
2728;SDS011;1372;47.956;7.830;2023-06-10T11:59:34;10.43;;;9.70;;
2728;SDS011;1372;47.956;7.830;2023-06-10T12:02:03;10.47;;;9.70;;
2728;SDS011;1372;47.956;7.830;2023-06-10T12:04:32;10.63;;;9.73;;
2728;SDS011;1372;47.956;7.830;2023-06-10T12:07:05;10.60;;;9.80;;
2728;SDS011;1372;47.956;7.830;2023-06-10T12:09:34;10.63;;;9.87;;
2728;SDS011;1372;47.956;7.830;2023-06-10T12:12:03;10.27;;;9.47;;
2728;SDS011;1372;47.956;7.830;2023-06-10T12:14:49;10.40;;;9.60;;
2728;SDS011;1372;47.956;7.830;2023-06-10T12:17:22;10.07;;;9.27;;
2728;SDS011;1372;47.956;7.830;2023-06-10T12:19:56;10.67;;;9.77;;
2728;SDS011;1372;47.956;7.830;2023-06-10T12:22:27;10.53;;;9.73;;
2728;SDS011;1372;47.956;7.830;2023-06-10T12:25:05;10.67;;;9.90;;
2728;SDS011;1372;47.956;7.830;2023-06-10T12:27:38;10.33;;;9.53;;
2728;SDS011;1372;47.956;7.830;2023-06-10T12:30:08;10.87;;;9.97;;
2728;SDS011;1372;47.956;7.830;2023-06-10T12:32:40;11.13;;;10.13;;
2728;SDS011;1372;47.956;7.830;2023-06-10T12:35:13;10.53;;;9.50;;
2728;SDS011;1372;47.956;7.830;2023-06-10T12:37:55;9.60;;;8.90;;
2728;SDS011;1372;47.956;7.830;2023-06-10T12:40:28;9.50;;;8.80;;
2728;SDS011;1372;47.956;7.830;2023-06-10T12:43:01;10.90;;;10.00;;
2728;SDS011;1372;47.956;7.830;2023-06-10T12:45:31;9.50;;;8.80;;
2728;SDS011;1372;47.956;7.830;2023-06-10T12:48:06;9.73;;;9.03;;
2728;SDS011;1372;47.956;7.830;2023-06-10T12:50:37;9.97;;;9.27;;
2728;SDS011;1372;47.956;7.830;2023-06-10T12:53:11;11.77;;;10.67;;
2728;SDS011;1372;47.956;7.830;2023-06-10T12:55:40;13.77;;;12.57;;
2728;SDS011;1372;47.956;7.830;2023-06-10T12:58:09;12.40;;;11.30;;
2728;SDS011;1372;47.956;7.830;2023-06-10T13:00:38;11.70;;;10.80;;
2728;SDS011;1372;47.956;7.830;2023-06-10T13:03:10;12.60;;;11.53;;
2728;SDS011;1372;47.956;7.830;2023-06-10T13:05:39;13.17;;;12.07;;
2728;SDS011;1372;47.956;7.830;2023-06-10T13:08:10;13.97;;;12.87;;
2728;SDS011;1372;47.956;7.830;2023-06-10T13:10:38;14.03;;;12.93;;
2728;SDS011;1372;47.956;7.830;2023-06-10T13:13:07;15.47;;;13.00;;
2728;SDS011;1372;47.956;7.830;2023-06-10T13:15:36;15.37;;;14.03;;
2728;SDS011;1372;47.956;7.830;2023-06-10T13:18:09;14.57;;;13.47;;
2728;SDS011;1372;47.956;7.830;2023-06-10T13:20:41;13.00;;;12.00;;
2728;SDS011;1372;47.956;7.830;2023-06-10T13:23:11;14.33;;;13.17;;
2728;SDS011;1372;47.956;7.830;2023-06-10T13:25:40;12.83;;;11.83;;
2728;SDS011;1372;47.956;7.830;2023-06-10T13:28:11;13.57;;;12.53;;
2728;SDS011;1372;47.956;7.830;2023-06-10T13:30:40;12.00;;;10.90;;
2728;SDS011;1372;47.956;7.830;2023-06-10T13:33:13;12.73;;;11.83;;
2728;SDS011;1372;47.956;7.830;2023-06-10T13:35:42;12.27;;;11.20;;
2728;SDS011;1372;47.956;7.830;2023-06-10T13:38:12;12.73;;;11.67;;
2728;SDS011;1372;47.956;7.830;2023-06-10T13:40:41;11.20;;;10.33;;
2728;SDS011;1372;47.956;7.830;2023-06-10T13:43:11;11.90;;;11.00;;
2728;SDS011;1372;47.956;7.830;2023-06-10T13:45:40;11.20;;;10.37;;
2728;SDS011;1372;47.956;7.830;2023-06-10T13:48:09;11.03;;;10.23;;
2728;SDS011;1372;47.956;7.830;2023-06-10T13:50:38;10.77;;;9.97;;
2728;SDS011;1372;47.956;7.830;2023-06-10T13:53:07;11.10;;;10.20;;
2728;SDS011;1372;47.956;7.830;2023-06-10T13:55:37;10.73;;;9.93;;
2728;SDS011;1372;47.956;7.830;2023-06-10T13:58:05;10.43;;;9.60;;
2728;SDS011;1372;47.956;7.830;2023-06-10T14:00:34;10.17;;;9.37;;
2728;SDS011;1372;47.956;7.830;2023-06-10T14:03:06;9.53;;;8.73;;
2728;SDS011;1372;47.956;7.830;2023-06-10T14:05:35;9.50;;;8.63;;
2728;SDS011;1372;47.956;7.830;2023-06-10T14:08:04;8.90;;;8.20;;
2728;SDS011;1372;47.956;7.830;2023-06-10T14:10:32;8.67;;;8.07;;
2728;SDS011;1372;47.956;7.830;2023-06-10T14:13:03;8.77;;;8.07;;
2728;SDS011;1372;47.956;7.830;2023-06-10T14:15:31;8.10;;;7.50;;
2728;SDS011;1372;47.956;7.830;2023-06-10T14:18:00;7.90;;;7.03;;
2728;SDS011;1372;47.956;7.830;2023-06-10T14:20:29;8.20;;;7.60;;
2728;SDS011;1372;47.956;7.830;2023-06-10T14:22:58;8.00;;;7.40;;
2728;SDS011;1372;47.956;7.830;2023-06-10T14:25:27;7.70;;;7.10;;
2728;SDS011;1372;47.956;7.830;2023-06-10T14:27:56;7.73;;;7.13;;
2728;SDS011;1372;47.956;7.830;2023-06-10T14:30:27;8.13;;;7.47;;
2728;SDS011;1372;47.956;7.830;2023-06-10T14:32:57;8.50;;;7.83;;
2728;SDS011;1372;47.956;7.830;2023-06-10T14:35:26;8.00;;;7.40;;
2728;SDS011;1372;47.956;7.830;2023-06-10T14:37:55;9.27;;;8.47;;
2728;SDS011;1372;47.956;7.830;2023-06-10T14:40:24;8.63;;;7.93;;
2728;SDS011;1372;47.956;7.830;2023-06-10T14:42:55;8.10;;;7.50;;
2728;SDS011;1372;47.956;7.830;2023-06-10T14:45:24;8.27;;;7.70;;
2728;SDS011;1372;47.956;7.830;2023-06-10T14:47:54;8.00;;;7.40;;
2728;SDS011;1372;47.956;7.830;2023-06-10T14:50:23;7.33;;;6.73;;
2728;SDS011;1372;47.956;7.830;2023-06-10T14:52:52;7.70;;;7.10;;
2728;SDS011;1372;47.956;7.830;2023-06-10T14:55:21;7.77;;;7.17;;
2728;SDS011;1372;47.956;7.830;2023-06-10T14:57:50;7.57;;;7.00;;
2728;SDS011;1372;47.956;7.830;2023-06-10T15:00:19;8.00;;;7.40;;
2728;SDS011;1372;47.956;7.830;2023-06-10T15:02:53;7.10;;;6.60;;
2728;SDS011;1372;47.956;7.830;2023-06-10T15:05:24;6.30;;;5.90;;
2728;SDS011;1372;47.956;7.830;2023-06-10T15:07:53;7.27;;;6.67;;
2728;SDS011;1372;47.956;7.830;2023-06-10T15:10:22;7.43;;;6.83;;
2728;SDS011;1372;47.956;7.830;2023-06-10T15:12:54;7.13;;;6.63;;
2728;SDS011;1372;47.956;7.830;2023-06-10T15:15:24;7.17;;;6.67;;
2728;SDS011;1372;47.956;7.830;2023-06-10T15:17:54;6.57;;;6.07;;
2728;SDS011;1372;47.956;7.830;2023-06-10T15:20:23;7.07;;;6.50;;
2728;SDS011;1372;47.956;7.830;2023-06-10T15:22:52;6.90;;;6.40;;
2728;SDS011;1372;47.956;7.830;2023-06-10T15:25:23;6.93;;;6.43;;
2728;SDS011;1372;47.956;7.830;2023-06-10T15:27:57;7.57;;;6.97;;
2728;SDS011;1372;47.956;7.830;2023-06-10T15:30:26;7.63;;;7.00;;
2728;SDS011;1372;47.956;7.830;2023-06-10T15:32:56;7.50;;;6.90;;